Time;durP1;ratioP1;P1;durP2;ratioP2;P2;SDS_P1;SDS_P2;PMS_P1;PMS_P2;Temp;Humidity;BMP_temperature;BMP_pressure;BME280_temperature;BME280_humidity;BME280_pressure;Samples;Min_cycle;Max_cycle;Signal;HPM_P1;HPM_P2
2022/02/18 00:01:38;;;;;;;7.75;2.05;;;;;;;;;;5078022;28;20291;-82
2022/02/18 00:04:05;;;;;;;5.97;1.60;;;;;;;;;;5077840;28;20029;-83
2022/02/18 00:06:31;;;;;;;5.57;1.88;;;;;;;;;;5077562;28;20410;-83
2022/02/18 00:08:58;;;;;;;5.78;1.70;;;;;;;;;;5078022;28;20080;-83
2022/02/18 00:11:24;;;;;;;7.32;2.20;;;;;;;;;;5078075;28;20024;-84
2022/02/18 00:13:50;;;;;;;5.57;1.70;;;;;;;;;;5078000;28;20327;-84
2022/02/18 00:16:16;;;;;;;9.98;2.05;;;;;;;;;;5077666;28;20035;-83
2022/02/18 00:18:42;;;;;;;9.32;2.00;;;;;;;;;;5077610;28;20489;-83
2022/02/18 00:21:08;;;;;;;5.22;1.20;;;;;;;;;;5077369;28;20028;-83
2022/02/18 00:23:34;;;;;;;7.53;1.20;;;;;;;;;;5077915;28;20022;-83
2022/02/18 00:26:00;;;;;;;3.72;1.10;;;;;;;;;;5077525;28;20386;-84
2022/02/18 00:28:27;;;;;;;8.27;1.50;;;;;;;;;;5077721;28;20017;-83
2022/02/18 00:30:53;;;;;;;4.68;1.38;;;;;;;;;;5076500;28;20395;-83
2022/02/18 00:33:19;;;;;;;7.15;1.45;;;;;;;;;;5077122;28;20025;-83
2022/02/18 00:35:45;;;;;;;9.82;1.92;;;;;;;;;;5076233;28;20033;-84
2022/02/18 00:38:11;;;;;;;5.50;1.02;;;;;;;;;;5077256;28;20418;-83
2022/02/18 00:40:38;;;;;;;3.38;0.90;;;;;;;;;;5077380;28;20399;-83
2022/02/18 00:43:04;;;;;;;6.57;0.98;;;;;;;;;;5076544;28;20077;-84
2022/02/18 00:45:30;;;;;;;8.18;1.00;;;;;;;;;;5077463;28;20028;-84
2022/02/18 00:47:57;;;;;;;3.22;1.05;;;;;;;;;;5077548;28;20112;-84
2022/02/18 00:50:23;;;;;;;12.70;1.63;;;;;;;;;;5076966;28;20016;-83
2022/02/18 00:52:49;;;;;;;6.88;1.35;;;;;;;;;;5077116;28;20056;-84
2022/02/18 00:55:15;;;;;;;6.05;0.80;;;;;;;;;;5077227;28;20024;-83
2022/02/18 00:57:41;;;;;;;4.45;1.00;;;;;;;;;;5077212;28;20437;-84
2022/02/18 01:00:08;;;;;;;8.30;1.05;;;;;;;;;;5076266;28;20326;-84
2022/02/18 01:02:35;;;;;;;5.00;1.17;;;;;;;;;;5077286;28;20024;-85
2022/02/18 01:05:01;;;;;;;4.40;1.08;;;;;;;;;;5077218;28;20017;-85
2022/02/18 01:07:27;;;;;;;7.70;1.38;;;;;;;;;;5077151;28;20024;-83
2022/02/18 01:09:54;;;;;;;5.40;1.02;;;;;;;;;;5076955;28;20040;-83
2022/02/18 01:12:21;;;;;;;7.97;1.48;;;;;;;;;;5077240;28;20031;-83
2022/02/18 01:14:48;;;;;;;3.00;0.95;;;;;;;;;;5076984;28;20066;-83
2022/02/18 01:17:14;;;;;;;6.55;0.90;;;;;;;;;;5077016;28;20025;-83
2022/02/18 01:19:40;;;;;;;7.68;0.90;;;;;;;;;;5076020;28;20029;-83
2022/02/18 01:22:06;;;;;;;4.20;0.80;;;;;;;;;;5076722;28;20029;-83
2022/02/18 01:24:33;;;;;;;3.47;0.80;;;;;;;;;;5076976;28;20033;-83
2022/02/18 01:26:59;;;;;;;4.22;0.80;;;;;;;;;;5076999;28;20044;-84
2022/02/18 01:29:25;;;;;;;6.55;1.10;;;;;;;;;;5076882;28;20075;-84
2022/02/18 01:31:51;;;;;;;5.10;1.25;;;;;;;;;;5076689;28;20028;-83
2022/02/18 01:34:18;;;;;;;7.80;2.20;;;;;;;;;;5076733;28;20044;-83
2022/02/18 01:36:44;;;;;;;12.63;3.85;;;;;;;;;;5076626;28;20035;-83
2022/02/18 01:39:12;;;;;;;18.95;6.00;;;;;;;;;;5070373;28;20369;-84
2022/02/18 01:41:38;;;;;;;32.13;9.52;;;;;;;;;;5076629;28;20424;-83
2022/02/18 01:44:05;;;;;;;28.30;9.77;;;;;;;;;;5076724;28;20460;-84
2022/02/18 01:46:31;;;;;;;31.80;8.30;;;;;;;;;;5075563;28;20211;-83
2022/02/18 01:48:58;;;;;;;16.15;5.30;;;;;;;;;;5076821;28;20021;-84
2022/02/18 01:51:25;;;;;;;12.55;3.47;;;;;;;;;;5076263;28;20062;-83
2022/02/18 01:53:52;;;;;;;8.82;2.55;;;;;;;;;;5078601;28;20027;-83
2022/02/18 01:56:19;;;;;;;11.35;3.00;;;;;;;;;;5079440;28;20028;-84
2022/02/18 01:58:45;;;;;;;11.20;3.00;;;;;;;;;;5080498;28;20033;-84
2022/02/18 02:01:11;;;;;;;21.13;2.70;;;;;;;;;;5079265;28;20323;-84
2022/02/18 02:03:38;;;;;;;6.20;2.00;;;;;;;;;;5078991;28;20123;-84
2022/02/18 02:06:07;;;;;;;10.45;2.42;;;;;;;;;;5080004;28;20016;-84
2022/02/18 02:08:37;;;;;;;9.20;2.60;;;;;;;;;;5078901;28;20407;-84
2022/02/18 02:11:04;;;;;;;10.10;1.75;;;;;;;;;;5080070;28;20024;-85
2022/02/18 02:13:35;;;;;;;8.98;1.80;;;;;;;;;;5080241;28;20035;-85
2022/02/18 02:16:01;;;;;;;7.65;1.65;;;;;;;;;;5079949;28;20028;-85
2022/02/18 02:18:27;;;;;;;6.75;1.58;;;;;;;;;;5080048;28;20017;-85
2022/02/18 02:20:53;;;;;;;10.20;1.50;;;;;;;;;;5079906;28;20310;-84
2022/02/18 02:23:19;;;;;;;9.77;1.50;;;;;;;;;;5079021;28;20472;-84
2022/02/18 02:25:46;;;;;;;9.13;2.08;;;;;;;;;;5079984;28;20291;-84
2022/02/18 02:28:13;;;;;;;18.10;2.78;;;;;;;;;;5079630;28;20025;-84
2022/02/18 02:30:39;;;;;;;11.95;3.90;;;;;;;;;;5080011;28;20021;-84
2022/02/18 02:33:05;;;;;;;22.02;4.47;;;;;;;;;;5079744;28;20055;-84
2022/02/18 02:35:31;;;;;;;15.73;4.13;;;;;;;;;;5079578;28;20021;-84
2022/02/18 02:37:57;;;;;;;16.33;3.60;;;;;;;;;;5079631;28;20028;-84
2022/02/18 02:40:23;;;;;;;13.70;3.13;;;;;;;;;;5079655;28;20025;-84
2022/02/18 02:42:49;;;;;;;8.43;2.50;;;;;;;;;;5078570;28;20472;-85
2022/02/18 02:45:16;;;;;;;13.95;4.20;;;;;;;;;;5079258;28;20021;-84
2022/02/18 02:47:46;;;;;;;20.35;4.15;;;;;;;;;;5079763;28;20103;-84
2022/02/18 02:50:16;;;;;;;11.48;2.25;;;;;;;;;;5079237;28;20021;-83
2022/02/18 02:52:42;;;;;;;8.77;2.60;;;;;;;;;;5079394;28;20029;-83
2022/02/18 02:55:13;;;;;;;12.50;2.92;;;;;;;;;;5079048;28;20399;-82
2022/02/18 02:57:42;;;;;;;11.15;2.70;;;;;;;;;;5078077;28;20032;-82
2022/02/18 03:00:08;;;;;;;9.45;2.00;;;;;;;;;;5079274;28;20433;-83
2022/02/18 03:02:34;;;;;;;6.95;2.40;;;;;;;;;;5078726;28;20136;-83
2022/02/18 03:05:01;;;;;;;8.50;2.38;;;;;;;;;;5078155;28;20085;-84
2022/02/18 03:07:27;;;;;;;8.55;2.63;;;;;;;;;;5077955;28;20020;-84
2022/02/18 03:09:53;;;;;;;11.85;2.58;;;;;;;;;;5078830;28;20055;-84
2022/02/18 03:12:19;;;;;;;6.90;1.92;;;;;;;;;;5078690;28;20020;-84
2022/02/18 03:14:45;;;;;;;12.73;2.40;;;;;;;;;;5078876;28;20070;-83
2022/02/18 03:17:11;;;;;;;9.57;2.83;;;;;;;;;;5078848;28;20027;-84
2022/02/18 03:19:37;;;;;;;11.30;3.20;;;;;;;;;;5078742;28;20032;-85
2022/02/18 03:22:05;;;;;;;9.43;2.58;;;;;;;;;;5078739;28;20112;-85
2022/02/18 03:24:32;;;;;;;9.98;2.03;;;;;;;;;;5078608;28;20024;-85
2022/02/18 03:26:58;;;;;;;7.15;1.90;;;;;;;;;;5078816;28;20044;-84
2022/02/18 03:29:25;;;;;;;8.75;1.85;;;;;;;;;;5078704;28;20103;-85
2022/02/18 03:31:51;;;;;;;8.07;2.00;;;;;;;;;;5078679;28;20403;-84
2022/02/18 03:34:17;;;;;;;8.35;1.83;;;;;;;;;;5077729;28;20406;-85
2022/02/18 03:36:43;;;;;;;7.20;1.35;;;;;;;;;;5078445;28;20390;-84
2022/02/18 03:39:09;;;;;;;15.85;1.77;;;;;;;;;;5078733;28;20036;-85
2022/02/18 03:41:35;;;;;;;9.82;1.70;;;;;;;;;;5078678;28;20020;-84
2022/02/18 03:44:01;;;;;;;6.00;1.70;;;;;;;;;;5078611;28;20036;-85
2022/02/18 03:46:27;;;;;;;9.95;1.67;;;;;;;;;;5077217;28;20036;-84
2022/02/18 03:48:54;;;;;;;8.27;2.22;;;;;;;;;;5078278;28;20058;-84
2022/02/18 03:51:20;;;;;;;12.10;6.20;;;;;;;;;;5078099;28;20357;-84
2022/02/18 03:53:49;;;;;;;11.05;4.72;;;;;;;;;;5078466;28;20021;-84
2022/02/18 03:56:15;;;;;;;10.55;2.85;;;;;;;;;;5078239;28;20020;-84
2022/02/18 03:58:41;;;;;;;8.70;2.90;;;;;;;;;;5077138;28;20025;-84
2022/02/18 04:01:07;;;;;;;9.55;5.10;;;;;;;;;;5077965;28;20025;-84
2022/02/18 04:03:33;;;;;;;9.05;2.63;;;;;;;;;;5077800;28;20029;-84
2022/02/18 04:05:59;;;;;;;6.32;2.55;;;;;;;;;;5078058;28;20017;-83
2022/02/18 04:08:26;;;;;;;9.88;4.45;;;;;;;;;;5078080;28;20111;-84
2022/02/18 04:10:52;;;;;;;14.88;5.57;;;;;;;;;;5077936;28;20029;-84
2022/02/18 04:13:18;;;;;;;16.95;5.57;;;;;;;;;;5077090;28;20060;-84
2022/02/18 04:15:44;;;;;;;15.00;5.53;;;;;;;;;;5077748;28;20027;-84
2022/02/18 04:18:10;;;;;;;26.63;10.18;;;;;;;;;;5078014;28;20024;-84
2022/02/18 04:20:36;;;;;;;26.63;10.27;;;;;;;;;;5077625;28;20040;-84
2022/02/18 04:23:02;;;;;;;21.33;9.10;;;;;;;;;;5076622;28;20144;-84
2022/02/18 04:25:28;;;;;;;19.20;7.95;;;;;;;;;;5077793;28;20028;-84
2022/02/18 04:27:55;;;;;;;23.42;12.73;;;;;;;;;;5076470;28;20029;-84
2022/02/18 04:30:22;;;;;;;30.95;14.85;;;;;;;;;;5077646;28;20022;-84
2022/02/18 04:32:48;;;;;;;20.10;9.02;;;;;;;;;;5077682;28;20095;-84
2022/02/18 04:35:14;;;;;;;20.70;6.80;;;;;;;;;;5077650;28;20109;-85
2022/02/18 04:37:41;;;;;;;18.13;6.53;;;;;;;;;;5076340;28;20085;-85
2022/02/18 04:40:07;;;;;;;13.45;4.50;;;;;;;;;;5077804;28;20036;-84
2022/02/18 04:42:33;;;;;;;11.55;4.30;;;;;;;;;;5076484;28;20044;-85
2022/02/18 04:44:59;;;;;;;11.90;4.03;;;;;;;;;;5077617;28;20021;-85
2022/02/18 04:47:25;;;;;;;10.73;3.50;;;;;;;;;;5077654;28;20183;-85
2022/02/18 04:49:51;;;;;;;18.80;6.22;;;;;;;;;;5076350;28;20142;-84
2022/02/18 04:52:17;;;;;;;30.42;7.85;;;;;;;;;;5077525;28;20029;-85
2022/02/18 04:54:44;;;;;;;33.40;7.90;;;;;;;;;;5077707;28;20100;-84
2022/02/18 04:57:10;;;;;;;34.35;10.60;;;;;;;;;;5076294;28;20036;-85
2022/02/18 04:59:36;;;;;;;29.48;8.65;;;;;;;;;;5077250;28;20020;-84
2022/02/18 05:02:03;;;;;;;29.50;7.90;;;;;;;;;;5077445;28;20025;-84
2022/02/18 05:04:29;;;;;;;33.92;11.85;;;;;;;;;;5076071;28;20391;-84
2022/02/18 05:06:56;;;;;;;41.15;12.80;;;;;;;;;;5077023;28;20035;-84
2022/02/18 05:09:22;;;;;;;38.58;10.15;;;;;;;;;;5077133;28;20123;-83
2022/02/18 05:11:49;;;;;;;47.00;10.23;;;;;;;;;;5076002;28;20024;-84
2022/02/18 05:14:15;;;;;;;51.97;13.02;;;;;;;;;;5077203;28;20410;-83
2022/02/18 05:16:42;;;;;;;39.22;13.45;;;;;;;;;;5072216;28;20048;-84
2022/02/18 05:19:09;;;;;;;35.90;11.80;;;;;;;;;;5077284;28;20021;-84
2022/02/18 05:21:36;;;;;;;49.50;10.10;;;;;;;;;;5075934;28;20036;-84
2022/02/18 05:24:03;;;;;;;56.65;12.05;;;;;;;;;;5071964;28;20024;-84
2022/02/18 05:26:29;;;;;;;61.60;12.20;;;;;;;;;;5067245;28;20533;-84
2022/02/18 05:28:55;;;;;;;28.92;7.55;;;;;;;;;;5064124;28;20025;-84
2022/02/18 05:31:22;;;;;;;45.85;11.10;;;;;;;;;;5061116;28;20104;-86
2022/02/18 05:33:48;;;;;;;37.33;10.88;;;;;;;;;;5061280;28;20105;-85
2022/02/18 05:36:33;;;;;;;29.23;7.05;;;;;;;;;;5061118;28;20033;-85
2022/02/18 05:38:59;;;;;;;58.25;13.88;;;;;;;;;;5068147;28;20028;-84
2022/02/18 05:41:25;;;;;;;61.63;14.77;;;;;;;;;;5080853;28;20024;-85
2022/02/18 05:43:51;;;;;;;51.10;11.73;;;;;;;;;;5079910;28;20528;-86
2022/02/18 05:46:17;;;;;;;80.72;15.85;;;;;;;;;;5080880;28;20021;-85
2022/02/18 05:48:44;;;;;;;37.90;10.25;;;;;;;;;;5079639;28;20074;-85
2022/02/18 05:51:10;;;;;;;52.38;16.63;;;;;;;;;;5080866;28;20024;-86
2022/02/18 05:53:36;;;;;;;19.50;7.45;;;;;;;;;;5080684;28;20025;-86
2022/02/18 05:56:03;;;;;;;11.07;4.70;;;;;;;;;;5079565;28;20112;-85
2022/02/18 05:58:31;;;;;;;10.77;4.65;;;;;;;;;;5079641;28;20422;-85
2022/02/18 06:00:57;;;;;;;23.52;8.85;;;;;;;;;;5080461;28;20036;-85
2022/02/18 06:03:23;;;;;;;57.35;16.63;;;;;;;;;;5079433;28;20025;-85
2022/02/18 06:05:49;;;;;;;21.10;9.15;;;;;;;;;;5080328;28;20027;-85
2022/02/18 06:08:15;;;;;;;20.92;4.88;;;;;;;;;;5079301;28;20036;-85
2022/02/18 06:10:41;;;;;;;14.32;4.00;;;;;;;;;;5080539;28;20036;-85
2022/02/18 06:13:08;;;;;;;11.30;3.92;;;;;;;;;;5080403;28;20322;-85
2022/02/18 06:15:34;;;;;;;15.85;4.57;;;;;;;;;;5079074;28;20028;-85
2022/02/18 06:18:00;;;;;;;15.10;5.05;;;;;;;;;;5080071;28;20025;-85
2022/02/18 06:20:26;;;;;;;24.42;6.15;;;;;;;;;;5079869;28;20025;-85
2022/02/18 06:22:52;;;;;;;17.30;7.15;;;;;;;;;;5080036;28;20074;-85
2022/02/18 06:25:18;;;;;;;28.23;8.68;;;;;;;;;;5075756;28;20028;-85
2022/02/18 06:27:44;;;;;;;25.35;6.43;;;;;;;;;;5079881;28;20112;-85
2022/02/18 06:30:10;;;;;;;36.35;7.82;;;;;;;;;;5072117;28;20090;-85
2022/02/18 06:32:37;;;;;;;40.80;7.93;;;;;;;;;;5077872;28;20035;-85
2022/02/18 06:35:03;;;;;;;29.40;7.07;;;;;;;;;;5079019;28;20315;-85
2022/02/18 06:37:29;;;;;;;46.47;9.40;;;;;;;;;;5078866;28;20032;-85
2022/02/18 06:39:55;;;;;;;48.80;10.35;;;;;;;;;;5079856;28;20344;-84
2022/02/18 06:42:21;;;;;;;43.00;13.25;;;;;;;;;;5079769;28;20025;-85
2022/02/18 06:44:47;;;;;;;39.45;10.68;;;;;;;;;;5079707;28;20044;-84
2022/02/18 06:47:13;;;;;;;45.97;11.20;;;;;;;;;;5079256;28;20043;-85
2022/02/18 06:49:41;;;;;;;41.70;17.80;;;;;;;;;;5079460;28;20070;-85
2022/02/18 06:52:07;;;;;;;42.13;17.63;;;;;;;;;;5079613;28;20024;-85
2022/02/18 06:54:33;;;;;;;24.80;11.50;;;;;;;;;;5079297;28;20510;-84
2022/02/18 06:57:02;;;;;;;12.90;5.70;;;;;;;;;;5079568;28;20324;-85
2022/02/18 06:59:29;;;;;;;15.68;6.35;;;;;;;;;;5079488;28;20122;-84
2022/02/18 07:01:55;;;;;;;10.38;4.53;;;;;;;;;;5079248;28;20047;-85
2022/02/18 07:04:25;;;;;;;12.18;5.22;;;;;;;;;;5078303;28;20478;-85
2022/02/18 07:06:51;;;;;;;17.30;7.57;;;;;;;;;;5079292;28;20020;-85
2022/02/18 07:09:17;;;;;;;15.45;5.93;;;;;;;;;;5079081;28;20048;-85
2022/02/18 07:11:44;;;;;;;16.88;7.97;;;;;;;;;;5079191;28;20043;-84
2022/02/18 07:14:11;;;;;;;31.42;19.45;;;;;;;;;;5079138;28;20025;-85
2022/02/18 07:16:41;;;;;;;55.22;27.88;;;;;;;;;;5079028;28;20361;-85
2022/02/18 07:19:08;;;;;;;51.63;24.95;;;;;;;;;;5078945;28;20028;-85
2022/02/18 07:21:34;;;;;;;39.63;18.15;;;;;;;;;;5077873;28;20031;-85
2022/02/18 07:24:00;;;;;;;49.78;19.70;;;;;;;;;;5078990;28;20028;-84
2022/02/18 07:26:26;;;;;;;33.08;15.60;;;;;;;;;;5078978;28;20021;-86
2022/02/18 07:28:52;;;;;;;26.30;12.27;;;;;;;;;;5078818;28;20032;-85
2022/02/18 07:31:18;;;;;;;25.73;9.15;;;;;;;;;;5078449;28;20016;-85
2022/02/18 07:33:44;;;;;;;23.73;9.25;;;;;;;;;;5078632;28;20090;-85
2022/02/18 07:36:10;;;;;;;16.38;7.88;;;;;;;;;;5078783;28;20070;-84
2022/02/18 07:38:36;;;;;;;19.42;8.15;;;;;;;;;;5078696;28;20032;-85
2022/02/18 07:41:02;;;;;;;19.10;7.95;;;;;;;;;;5077724;28;20141;-84
2022/02/18 07:43:28;;;;;;;19.90;9.75;;;;;;;;;;5078473;28;20047;-84
2022/02/18 07:45:58;;;;;;;29.70;11.55;;;;;;;;;;5078066;28;20427;-86
2022/02/18 07:48:25;;;;;;;33.55;8.90;;;;;;;;;;5078183;28;20032;-84
2022/02/18 07:50:51;;;;;;;26.70;8.13;;;;;;;;;;5076802;28;20024;-84
2022/02/18 07:53:17;;;;;;;27.83;8.95;;;;;;;;;;5077056;28;20418;-85
2022/02/18 07:55:43;;;;;;;26.45;9.15;;;;;;;;;;5077975;28;20017;-84
2022/02/18 07:58:09;;;;;;;30.48;11.48;;;;;;;;;;5078210;28;20426;-85
2022/02/18 08:00:36;;;;;;;30.67;12.52;;;;;;;;;;5077020;28;20017;-84
2022/02/18 08:03:03;;;;;;;29.60;12.27;;;;;;;;;;5077890;28;20052;-84
2022/02/18 08:05:29;;;;;;;35.05;13.95;;;;;;;;;;5076933;28;20032;-84
2022/02/18 08:08:00;;;;;;;46.83;19.23;;;;;;;;;;5076765;28;20402;-84
2022/02/18 08:10:26;;;;;;;59.42;18.10;;;;;;;;;;5077886;28;20338;-84
2022/02/18 08:12:53;;;;;;;23.10;9.23;;;;;;;;;;5077820;28;20111;-84
2022/02/18 08:15:19;;;;;;;24.65;9.48;;;;;;;;;;5077658;28;20032;-84
2022/02/18 08:17:45;;;;;;;23.70;8.10;;;;;;;;;;5076947;28;20436;-84
2022/02/18 08:20:12;;;;;;;21.83;6.68;;;;;;;;;;5076897;28;20035;-84
2022/02/18 08:22:38;;;;;;;15.98;4.57;;;;;;;;;;5077490;28;20028;-84
2022/02/18 08:25:05;;;;;;;20.13;5.65;;;;;;;;;;5077889;28;20040;-84
2022/02/18 08:27:31;;;;;;;23.98;5.50;;;;;;;;;;5077571;28;20017;-84
2022/02/18 08:29:57;;;;;;;17.00;4.88;;;;;;;;;;5077707;28;20021;-84
2022/02/18 08:32:24;;;;;;;17.60;4.43;;;;;;;;;;5077782;28;20073;-84
2022/02/18 08:34:50;;;;;;;21.92;5.05;;;;;;;;;;5077532;28;20029;-84
2022/02/18 08:37:16;;;;;;;17.05;4.55;;;;;;;;;;5077505;28;20433;-84
2022/02/18 08:39:42;;;;;;;22.00;5.82;;;;;;;;;;5077583;28;20039;-84
2022/02/18 08:42:08;;;;;;;12.43;4.13;;;;;;;;;;5077478;28;20029;-84
2022/02/18 08:44:34;;;;;;;13.50;3.42;;;;;;;;;;5077583;28;20017;-84
2022/02/18 08:47:00;;;;;;;15.73;5.28;;;;;;;;;;5076174;28;20025;-84
2022/02/18 08:49:26;;;;;;;14.85;4.50;;;;;;;;;;5076448;28;20017;-84
2022/02/18 08:51:52;;;;;;;15.40;6.18;;;;;;;;;;5077466;28;20032;-84
2022/02/18 08:54:19;;;;;;;15.70;4.13;;;;;;;;;;5077397;28;20028;-84
2022/02/18 08:56:45;;;;;;;12.73;4.63;;;;;;;;;;5077449;28;20029;-84
2022/02/18 08:59:11;;;;;;;14.98;5.18;;;;;;;;;;5077350;28;20028;-84
2022/02/18 09:01:37;;;;;;;17.05;5.70;;;;;;;;;;5076408;28;20024;-84
2022/02/18 09:04:03;;;;;;;10.88;3.30;;;;;;;;;;5079823;28;20031;-84
2022/02/18 09:06:31;;;;;;;12.18;3.35;;;;;;;;;;5081694;28;20017;-83
2022/02/18 09:08:58;;;;;;;13.85;4.10;;;;;;;;;;5081052;28;20055;-84
2022/02/18 09:11:24;;;;;;;11.00;3.50;;;;;;;;;;5081268;28;20100;-84
2022/02/18 09:13:50;;;;;;;15.93;5.07;;;;;;;;;;5081365;28;20021;-84
2022/02/18 09:16:17;;;;;;;10.63;3.60;;;;;;;;;;5081304;28;20016;-84
2022/02/18 09:18:44;;;;;;;15.13;6.57;;;;;;;;;;5080958;28;20070;-83
2022/02/18 09:21:10;;;;;;;12.68;5.15;;;;;;;;;;5080146;28;20020;-84
2022/02/18 09:23:36;;;;;;;18.05;5.05;;;;;;;;;;5081301;28;20048;-84
2022/02/18 09:26:02;;;;;;;17.15;5.10;;;;;;;;;;5080074;28;20079;-84
2022/02/18 09:28:28;;;;;;;16.35;5.28;;;;;;;;;;5081063;28;20402;-83
2022/02/18 09:30:55;;;;;;;13.73;3.22;;;;;;;;;;5080054;28;20126;-84
2022/02/18 09:33:22;;;;;;;12.82;3.22;;;;;;;;;;5080803;28;20028;-84
2022/02/18 09:35:48;;;;;;;10.55;2.97;;;;;;;;;;5081112;28;20028;-84
2022/02/18 09:38:14;;;;;;;8.35;2.22;;;;;;;;;;5080940;28;20067;-85
2022/02/18 09:40:40;;;;;;;11.55;2.42;;;;;;;;;;5080778;28;20031;-84
2022/02/18 09:43:07;;;;;;;12.10;2.20;;;;;;;;;;5080536;28;20024;-84
2022/02/18 09:45:33;;;;;;;11.10;3.35;;;;;;;;;;5080753;28;20049;-84
2022/02/18 09:47:59;;;;;;;10.85;3.25;;;;;;;;;;5080536;28;20020;-84
2022/02/18 09:50:25;;;;;;;8.40;2.70;;;;;;;;;;5080605;28;20028;-83
2022/02/18 09:52:52;;;;;;;7.88;2.30;;;;;;;;;;5080223;28;20050;-83
2022/02/18 09:55:18;;;;;;;11.85;3.85;;;;;;;;;;5080156;28;20033;-83
2022/02/18 09:57:45;;;;;;;10.48;4.00;;;;;;;;;;5080403;28;20025;-82
2022/02/18 10:00:12;;;;;;;7.70;2.03;;;;;;;;;;5080153;28;20027;-81
2022/02/18 10:02:38;;;;;;;5.63;1.90;;;;;;;;;;5079925;28;20033;-81
2022/02/18 10:05:05;;;;;;;7.75;2.50;;;;;;;;;;5078965;28;20021;-81
2022/02/18 10:07:32;;;;;;;10.40;3.15;;;;;;;;;;5062340;28;20074;-81
2022/02/18 10:09:58;;;;;;;5.30;1.40;;;;;;;;;;5079868;28;20136;-81
2022/02/18 10:12:43;;;;;;;7.63;2.60;;;;;;;;;;5079596;28;20029;-81
2022/02/18 10:15:09;;;;;;;8.43;2.22;;;;;;;;;;5079509;28;20045;-81
2022/02/18 10:17:43;;;;;;;5.57;1.73;;;;;;;;;;5079866;28;20021;-81
2022/02/18 10:20:09;;;;;;;11.55;2.42;;;;;;;;;;5079827;28;20036;-81
2022/02/18 10:22:35;;;;;;;9.25;1.48;;;;;;;;;;5078607;28;20028;-82
2022/02/18 10:25:09;;;;;;;9.65;3.80;;;;;;;;;;5078924;28;20056;-81
2022/02/18 10:27:44;;;;;;;7.13;2.60;;;;;;;;;;5079704;28;20063;-80
2022/02/18 10:30:22;;;;;;;5.57;2.03;;;;;;;;;;5079339;28;20098;-80
2022/02/18 10:32:48;;;;;;;15.43;4.07;;;;;;;;;;5079346;28;20327;-80
2022/02/18 10:35:14;;;;;;;10.40;3.08;;;;;;;;;;5079337;28;20039;-79
2022/02/18 10:37:46;;;;;;;5.20;2.20;;;;;;;;;;5079220;28;20074;-80
2022/02/18 10:40:17;;;;;;;6.57;3.00;;;;;;;;;;5079245;28;20029;-80
2022/02/18 10:42:44;;;;;;;12.18;5.90;;;;;;;;;;5079002;28;20038;-79
2022/02/18 10:45:19;;;;;;;8.10;2.40;;;;;;;;;;5079520;28;20399;-80
2022/02/18 10:47:45;;;;;;;5.07;2.13;;;;;;;;;;5079087;28;20108;-80
2022/02/18 10:50:17;;;;;;;6.07;1.60;;;;;;;;;;5077882;28;20029;-80
2022/02/18 10:52:43;;;;;;;;;;;;;;;;;;5079392;28;20062;-80
2022/02/18 10:55:10;;;;;;;9.82;2.35;;;;;;;;;;5079064;28;20241;-80
2022/02/18 10:57:36;;;;;;;7.53;1.80;;;;;;;;;;5078941;28;20021;-80
2022/02/18 11:00:12;;;;;;;5.63;2.00;;;;;;;;;;5078952;28;20108;-80
2022/02/18 11:02:39;;;;;;;8.30;2.20;;;;;;;;;;5077842;28;20036;-80
2022/02/18 11:05:21;;;;;;;10.02;1.90;;;;;;;;;;5078904;28;20020;-80
2022/02/18 11:07:47;;;;;;;12.82;4.45;;;;;;;;;;5078944;28;20029;-80
2022/02/18 11:10:31;;;;;;;24.13;8.65;;;;;;;;;;5078676;28;20109;-80
2022/02/18 11:12:58;;;;;;;16.95;5.30;;;;;;;;;;5078867;28;20044;-80
2022/02/18 11:15:24;;;;;;;29.70;9.18;;;;;;;;;;5078827;28;20029;-80
2022/02/18 11:17:51;;;;;;;44.53;11.48;;;;;;;;;;5077416;28;20311;-80
2022/02/18 11:20:18;;;;;;;45.78;12.90;;;;;;;;;;5078545;28;20024;-80
2022/02/18 11:22:45;;;;;;;36.30;10.57;;;;;;;;;;5077170;28;20326;-80
2022/02/18 11:25:14;;;;;;;18.70;5.95;;;;;;;;;;5078078;28;20407;-80
2022/02/18 11:27:40;;;;;;;34.38;10.00;;;;;;;;;;5078272;28;20024;-80
2022/02/18 11:30:08;;;;;;;17.27;4.50;;;;;;;;;;5078430;28;20323;-80
2022/02/18 11:32:37;;;;;;;9.15;2.78;;;;;;;;;;5077223;28;20029;-80
2022/02/18 11:35:12;;;;;;;6.72;2.75;;;;;;;;;;5077202;28;20044;-80
2022/02/18 11:37:42;;;;;;;16.95;4.38;;;;;;;;;;5078302;28;20055;-80
2022/02/18 11:40:14;;;;;;;89.63;18.63;;;;;;;;;;5078300;28;20035;-80
2022/02/18 11:42:41;;;;;;;11.75;4.38;;;;;;;;;;5078217;28;20025;-80
2022/02/18 11:45:15;;;;;;;14.20;5.47;;;;;;;;;;5078224;28;20280;-80
2022/02/18 11:47:41;;;;;;;22.10;9.32;;;;;;;;;;5077937;28;20035;-80
2022/02/18 11:50:12;;;;;;;29.50;9.48;;;;;;;;;;5077841;28;20028;-80
2022/02/18 11:52:56;;;;;;;13.73;4.97;;;;;;;;;;5078020;28;20033;-80
2022/02/18 11:55:26;;;;;;;13.32;4.25;;;;;;;;;;5077922;28;20024;-80
2022/02/18 11:57:56;;;;;;;21.75;6.25;;;;;;;;;;5077846;28;20044;-80
2022/02/18 12:00:36;;;;;;;22.13;7.07;;;;;;;;;;5077708;28;20107;-79
2022/02/18 12:03:09;;;;;;;12.95;5.13;;;;;;;;;;5076531;28;20032;-80
2022/02/18 12:05:35;;;;;;;24.42;7.90;;;;;;;;;;5077700;28;20070;-80
2022/02/18 12:08:01;;;;;;;15.70;6.88;;;;;;;;;;5076486;28;20326;-80
2022/02/18 12:10:30;;;;;;;37.35;12.52;;;;;;;;;;5077525;28;20056;-80
2022/02/18 12:13:13;;;;;;;17.17;6.53;;;;;;;;;;5114958;27;20399;-80
2022/02/18 12:15:40;;;;;;;23.27;7.90;;;;;;;;;;5115190;28;20046;-80
2022/02/18 12:18:09;;;;;;;12.35;4.53;;;;;;;;;;5114934;28;20024;-80
2022/02/18 12:20:44;;;;;;;13.23;5.82;;;;;;;;;;5115039;28;20102;-80
2022/02/18 12:23:26;;;;;;;13.57;5.40;;;;;;;;;;5114848;28;20024;-80
2022/02/18 12:26:11;;;;;;;20.55;4.47;;;;;;;;;;5115015;28;20024;-80
2022/02/18 12:28:37;;;;;;;31.90;4.93;;;;;;;;;;5114867;28;20023;-80
2022/02/18 12:31:09;;;;;;;15.13;4.70;;;;;;;;;;5114761;28;20144;-80
2022/02/18 12:33:36;;;;;;;20.10;4.90;;;;;;;;;;5114673;28;20028;-80
2022/02/18 12:36:12;;;;;;;15.80;5.28;;;;;;;;;;5114582;28;20031;-80
2022/02/18 12:38:45;;;;;;;10.60;3.03;;;;;;;;;;5114669;28;20302;-80
2022/02/18 12:41:14;;;;;;;14.55;3.35;;;;;;;;;;5114431;28;20465;-80
2022/02/18 12:43:41;;;;;;;45.92;5.88;;;;;;;;;;5114501;28;20079;-80
2022/02/18 12:46:08;;;;;;;16.65;4.35;;;;;;;;;;5114467;28;20034;-80
2022/02/18 12:48:38;;;;;;;9.40;2.28;;;;;;;;;;5114446;28;20016;-80
2022/02/18 12:51:08;;;;;;;8.63;2.28;;;;;;;;;;5114090;28;20030;-80
2022/02/18 12:53:35;;;;;;;9.10;3.42;;;;;;;;;;5114183;28;20023;-80
2022/02/18 12:56:01;;;;;;;9.90;3.78;;;;;;;;;;5114347;28;20103;-80
2022/02/18 12:58:27;;;;;;;9.93;3.35;;;;;;;;;;5114423;28;20020;-80
2022/02/18 13:00:53;;;;;;;14.18;4.25;;;;;;;;;;5113092;28;20041;-79
2022/02/18 13:03:19;;;;;;;15.80;6.82;;;;;;;;;;5113674;28;20035;-80
2022/02/18 13:05:46;;;;;;;27.10;12.75;;;;;;;;;;5112875;28;20028;-80
2022/02/18 13:08:18;;;;;;;15.20;6.88;;;;;;;;;;5114028;28;20035;-80
2022/02/18 13:10:44;;;;;;;11.73;4.93;;;;;;;;;;5113708;28;20031;-80
2022/02/18 13:13:14;;;;;;;17.23;6.13;;;;;;;;;;5114030;28;20039;-80
2022/02/18 13:15:41;;;;;;;61.72;9.32;;;;;;;;;;5112462;28;20038;-80
2022/02/18 13:18:09;;;;;;;96.85;38.33;;;;;;;;;;5113745;28;20022;-80
2022/02/18 13:20:35;;;;;;;15.90;4.70;;;;;;;;;;5113937;28;20046;-80
2022/02/18 13:23:05;;;;;;;27.83;8.77;;;;;;;;;;5108760;28;20024;-80
2022/02/18 13:25:33;;;;;;;15.48;5.68;;;;;;;;;;5100177;28;20303;-80
2022/02/18 13:28:02;;;;;;;22.23;5.90;;;;;;;;;;5100169;28;20024;-80
2022/02/18 13:30:30;;;;;;;23.60;10.60;;;;;;;;;;5100057;28;20062;-80
2022/02/18 13:33:02;;;;;;;22.10;7.43;;;;;;;;;;5099819;28;20050;-80
2022/02/18 13:35:29;;;;;;;26.40;8.90;;;;;;;;;;5100129;28;20062;-80
2022/02/18 13:37:56;;;;;;;84.18;8.65;;;;;;;;;;5099902;28;20035;-80
2022/02/18 13:40:24;;;;;;;22.25;6.25;;;;;;;;;;5099777;28;20333;-80
2022/02/18 13:42:51;;;;;;;22.83;7.13;;;;;;;;;;5099256;28;20057;-80
2022/02/18 13:45:17;;;;;;;16.83;6.63;;;;;;;;;;5099763;28;20296;-80
2022/02/18 13:47:44;;;;;;;17.77;6.38;;;;;;;;;;5099616;28;20023;-80
2022/02/18 13:50:10;;;;;;;18.90;7.72;;;;;;;;;;5099679;28;20027;-81
2022/02/18 13:52:36;;;;;;;50.75;22.80;;;;;;;;;;5099467;28;20027;-81
2022/02/18 13:55:02;;;;;;;16.27;6.13;;;;;;;;;;5099450;28;20028;-80
2022/02/18 13:57:32;;;;;;;56.17;24.92;;;;;;;;;;5098670;28;20127;-80
2022/02/18 13:59:58;;;;;;;22.48;10.75;;;;;;;;;;5099406;28;20046;-80
2022/02/18 14:02:25;;;;;;;21.67;9.77;;;;;;;;;;5099111;28;20020;-80
2022/02/18 14:04:53;;;;;;;48.78;23.17;;;;;;;;;;5099398;28;20028;-80
2022/02/18 14:07:20;;;;;;;38.10;17.30;;;;;;;;;;5099251;28;20016;-79
2022/02/18 14:09:50;;;;;;;29.38;11.30;;;;;;;;;;5099186;28;20030;-80
2022/02/18 14:12:36;;;;;;;51.25;20.83;;;;;;;;;;5099032;28;20122;-80
2022/02/18 14:15:04;;;;;;;17.63;8.63;;;;;;;;;;5098890;28;20360;-80
2022/02/18 14:17:30;;;;;;;42.28;17.95;;;;;;;;;;5098974;28;20024;-80
2022/02/18 14:19:58;;;;;;;77.55;32.92;;;;;;;;;;5099181;28;20026;-80
2022/02/18 14:22:34;;;;;;;28.55;13.00;;;;;;;;;;5098747;28;20065;-80
2022/02/18 14:25:01;;;;;;;21.27;8.73;;;;;;;;;;5098841;28;20031;-80
2022/02/18 14:27:27;;;;;;;20.33;8.00;;;;;;;;;;5098920;28;20069;-80
2022/02/18 14:29:58;;;;;;;30.88;7.13;;;;;;;;;;5098761;28;20020;-80
2022/02/18 14:32:43;;;;;;;20.23;7.10;;;;;;;;;;5098727;28;20024;-80